createdAt,value
2022-09-29T03:01:54.451Z,15.40
2022-09-29T03:04:24.308Z,15.82
2022-09-29T03:06:52.524Z,16.92
2022-09-29T03:09:19.056Z,16.05
2022-09-29T03:11:45.799Z,21.45
2022-09-29T03:14:12.876Z,17.38
2022-09-29T03:16:39.619Z,18.05
2022-09-29T03:19:07.573Z,24.58
2022-09-29T03:21:35.124Z,19.92
2022-09-29T03:24:01.861Z,18.92
2022-09-29T03:26:30.405Z,20.20
2022-09-29T03:28:57.139Z,17.55
2022-09-29T03:31:23.663Z,20.83
2022-09-29T03:33:50.380Z,18.25
2022-09-29T03:36:16.932Z,19.25
2022-09-29T03:38:45.532Z,19.65
2022-09-29T03:41:11.934Z,18.77
2022-09-29T03:43:38.334Z,17.73
2022-09-29T03:46:04.955Z,20.83
2022-09-29T03:48:31.502Z,23.65
2022-09-29T03:50:58.768Z,21.33
2022-09-29T03:53:25.258Z,18.17
2022-09-29T03:55:51.849Z,20.30
2022-09-29T03:58:18.598Z,22.60
2022-09-29T04:00:45.256Z,22.33
2022-09-29T04:03:11.828Z,19.48
2022-09-29T04:05:39.914Z,18.50
2022-09-29T04:08:06.905Z,22.67
2022-09-29T04:10:37.685Z,20.52
2022-09-29T04:13:04.730Z,22.07
2022-09-29T04:15:31.831Z,23.15
2022-09-29T04:17:58.867Z,22.30
2022-09-29T04:20:26.166Z,21.95
2022-09-29T04:22:52.618Z,24.35
2022-09-29T04:25:19.275Z,23.85
2022-09-29T04:27:45.694Z,24.73
2022-09-29T04:30:12.461Z,19.88
2022-09-29T04:32:39.125Z,22.10
2022-09-29T04:35:05.882Z,22.65
2022-09-29T04:37:32.363Z,25.50
2022-09-29T04:39:58.855Z,24.08
2022-09-29T04:42:25.311Z,20.88
2022-09-29T04:44:51.839Z,22.85
2022-09-29T04:47:18.333Z,21.27
2022-09-29T04:49:44.781Z,21.88
2022-09-29T04:52:12.223Z,25.30
2022-09-29T04:54:38.900Z,20.65
2022-09-29T04:57:06.375Z,24.02
2022-09-29T04:59:33.622Z,24.63
2022-09-29T05:02:00.270Z,22.05
2022-09-29T05:04:26.785Z,30.15
2022-09-29T05:06:53.219Z,21.95
2022-09-29T05:09:24.074Z,22.00
2022-09-29T05:11:51.374Z,21.95
2022-09-29T05:14:17.770Z,23.58
2022-09-29T05:16:44.251Z,19.63
2022-09-29T05:19:11.007Z,29.88
2022-09-29T05:21:37.517Z,29.73
2022-09-29T05:24:04.030Z,24.00
2022-09-29T05:26:30.560Z,23.27
2022-09-29T05:28:56.991Z,23.90
2022-09-29T05:31:23.504Z,22.55
2022-09-29T05:33:49.963Z,22.80
2022-09-29T05:36:16.590Z,25.58
2022-09-29T05:38:42.978Z,23.63
2022-09-29T05:41:12.349Z,26.25
2022-09-29T05:43:40.216Z,31.77
2022-09-29T05:46:09.148Z,20.23
2022-09-29T05:48:35.968Z,23.50
2022-09-29T05:51:13.932Z,27.45
2022-09-29T05:53:40.875Z,28.98
2022-09-29T05:56:12.700Z,29.20
2022-09-29T05:58:40.268Z,23.75
2022-09-29T06:01:27.183Z,25.00
2022-09-29T06:03:54.823Z,28.92
2022-09-29T06:06:24.547Z,24.15
2022-09-29T06:08:51.494Z,24.85
2022-09-29T06:11:20.912Z,24.58
2022-09-29T06:13:49.516Z,23.25
2022-09-29T06:16:17.854Z,24.77
2022-09-29T06:18:44.306Z,32.97
2022-09-29T06:21:13.101Z,31.40
2022-09-29T06:23:40.225Z,68.53
2022-09-29T06:26:09.538Z,32.08
2022-09-29T06:28:36.644Z,30.75
2022-09-29T06:31:13.095Z,26.33
2022-09-29T06:33:39.807Z,32.97
2022-09-29T06:36:47.691Z,32.20
2022-09-29T06:39:15.426Z,27.95
2022-09-29T06:41:44.487Z,38.38
2022-09-29T06:44:11.543Z,34.65
2022-09-29T06:46:37.971Z,26.52
2022-09-29T06:49:04.423Z,28.95
2022-09-29T06:51:42.098Z,33.35
2022-09-29T06:54:12.769Z,38.10
2022-09-29T06:56:39.969Z,35.28
2022-09-29T06:59:06.983Z,33.42
2022-09-29T07:01:34.164Z,32.25
2022-09-29T07:04:02.203Z,38.10
2022-09-29T07:06:32.124Z,31.02
2022-09-29T07:08:59.369Z,33.33
2022-09-29T07:11:26.682Z,32.90
2022-09-29T07:13:54.842Z,36.90
2022-09-29T07:16:23.831Z,33.72
2022-09-29T07:18:51.185Z,33.13
2022-09-29T07:21:18.636Z,37.83
2022-09-29T07:23:46.839Z,33.15
2022-09-29T07:26:15.071Z,38.00
2022-09-29T07:28:41.529Z,31.33
2022-09-29T07:31:14.869Z,35.20
2022-09-29T07:33:46.200Z,35.92
2022-09-29T07:36:14.034Z,37.45
2022-09-29T07:38:41.019Z,34.45
2022-09-29T07:41:10.684Z,30.77
2022-09-29T07:43:37.738Z,34.95
2022-09-29T07:46:04.613Z,32.13
2022-09-29T07:48:32.472Z,33.40
2022-09-29T07:51:02.558Z,29.98
2022-09-29T07:53:32.021Z,40.47
2022-09-29T07:56:21.687Z,34.90
2022-09-29T07:58:52.571Z,32.80
2022-09-29T08:01:20.109Z,36.25
2022-09-29T08:03:52.388Z,39.83
2022-09-29T08:06:19.849Z,36.35
2022-09-29T08:08:58.994Z,30.83
2022-09-29T08:11:32.416Z,30.67
2022-09-29T08:14:00.807Z,33.38
2022-09-29T08:16:27.517Z,31.15
2022-09-29T08:18:54.165Z,29.77
2022-09-29T08:21:20.589Z,27.95
2022-09-29T08:23:47.844Z,28.00
2022-09-29T08:26:16.979Z,32.30
2022-09-29T08:28:45.112Z,33.45
2022-09-29T08:31:14.530Z,32.72
2022-09-29T08:33:41.305Z,34.03
2022-09-29T08:36:14.560Z,26.65
2022-09-29T08:38:43.242Z,31.52
2022-09-29T08:41:32.591Z,30.40
2022-09-29T08:44:05.110Z,37.03
2022-09-29T08:46:37.839Z,28.80
2022-09-29T08:49:09.891Z,31.15
2022-09-29T08:51:46.937Z,28.50
2022-09-29T08:54:38.492Z,23.83
2022-09-29T08:57:07.488Z,24.92
2022-09-29T08:59:33.952Z,26.77
2022-09-29T09:02:28.771Z,24.77
2022-09-29T09:04:55.186Z,22.27
2022-09-29T09:07:36.054Z,23.55
2022-09-29T09:10:14.495Z,19.80
2022-09-29T09:13:05.591Z,28.40
2022-09-29T09:15:47.231Z,21.43
2022-09-29T09:18:36.629Z,17.88
2022-09-29T09:21:17.061Z,19.83
2022-09-29T09:24:08.183Z,20.40
2022-09-29T09:26:42.740Z,22.05
2022-09-29T09:29:33.830Z,19.92
2022-09-29T09:32:07.362Z,16.73
2022-09-29T09:34:57.738Z,29.92
2022-09-29T09:37:35.225Z,25.08
2022-09-29T09:40:24.092Z,17.75
2022-09-29T09:42:58.372Z,18.40
2022-09-29T09:45:54.998Z,18.77
2022-09-29T09:48:30.793Z,18.33
2022-09-29T09:51:01.616Z,14.90
2022-09-29T09:53:39.764Z,16.17
2022-09-29T09:56:57.253Z,13.93
2022-09-29T09:59:43.533Z,12.50
2022-09-29T10:02:20.430Z,9.80
2022-09-29T10:04:53.051Z,11.88
2022-09-29T10:07:22.216Z,12.70
2022-09-29T10:09:48.953Z,8.90
2022-09-29T10:12:18.330Z,11.85
2022-09-29T10:14:52.953Z,11.18
2022-09-29T10:17:24.979Z,7.28
2022-09-29T10:20:05.561Z,11.65
2022-09-29T10:22:33.052Z,9.05
2022-09-29T10:25:19.830Z,8.00
2022-09-29T10:27:53.126Z,8.43
2022-09-29T10:30:23.363Z,8.90
2022-09-29T10:32:56.265Z,6.45
2022-09-29T10:35:26.339Z,9.75
2022-09-29T10:38:05.907Z,8.55
2022-09-29T10:40:33.372Z,8.35
2022-09-29T10:43:24.110Z,10.30
2022-09-29T10:45:50.964Z,6.53
2022-09-29T10:48:18.943Z,10.00
2022-09-29T10:51:05.438Z,10.07
2022-09-29T10:53:41.083Z,9.85
2022-09-29T10:56:17.846Z,23.17
2022-09-29T10:59:01.870Z,8.23
2022-09-29T11:01:35.429Z,8.90
2022-09-29T11:04:06.633Z,9.65
2022-09-29T11:06:38.437Z,8.85
2022-09-29T11:09:27.872Z,9.77
2022-09-29T11:12:00.411Z,7.70
2022-09-29T11:14:41.545Z,12.50
2022-09-29T11:17:24.763Z,9.70
2022-09-29T11:20:00.707Z,6.85
2022-09-29T11:22:42.268Z,5.68
2022-09-29T11:25:22.547Z,4.88
2022-09-29T11:28:04.493Z,10.32
2022-09-29T11:31:00.187Z,7.18
2022-09-29T11:33:38.422Z,4.97
2022-09-29T11:36:21.942Z,4.68
2022-09-29T11:39:06.566Z,6.53
2022-09-29T11:41:36.010Z,10.10
2022-09-29T11:44:20.994Z,4.72
2022-09-29T11:46:47.441Z,4.47
2022-09-29T11:49:41.178Z,6.07
2022-09-29T11:52:22.997Z,4.63
2022-09-29T11:57:54.138Z,8.82
2022-09-29T12:00:28.012Z,5.97
2022-09-29T12:02:54.459Z,7.28
2022-09-29T12:05:35.897Z,6.78
2022-09-29T12:08:24.389Z,28.50
2022-09-29T12:11:40.503Z,9.10
2022-09-29T12:14:20.929Z,4.68
2022-09-29T12:16:55.011Z,3.30
2022-09-29T12:19:26.633Z,7.70
2022-09-29T12:21:55.450Z,4.28
2022-09-29T12:24:54.666Z,13.35
2022-09-29T12:27:37.609Z,15.93
2022-09-29T12:30:15.916Z,7.55
2022-09-29T12:32:50.960Z,8.15
2022-09-29T12:35:24.486Z,8.48
2022-09-29T12:38:00.635Z,5.57
2022-09-29T12:40:38.638Z,26.58
2022-09-29T12:43:11.386Z,6.40
2022-09-29T12:46:24.538Z,5.88
2022-09-29T12:49:08.959Z,11.75
2022-09-29T12:51:44.258Z,6.95
2022-09-29T12:54:16.478Z,5.50
2022-09-29T12:57:15.498Z,5.20
2022-09-29T12:59:57.889Z,7.45
2022-09-29T13:02:49.168Z,5.20
2022-09-29T13:05:34.143Z,4.30
2022-09-29T13:08:49.459Z,4.53
2022-09-29T13:11:57.233Z,4.70
2022-09-29T13:14:53.576Z,4.15
2022-09-29T13:17:42.647Z,6.35
2022-09-29T13:20:55.975Z,3.97
2022-09-29T13:23:48.901Z,3.80
2022-09-29T13:26:34.974Z,4.88
2022-09-29T13:29:16.490Z,3.17
2022-09-29T13:31:46.357Z,4.78
2022-09-29T13:34:22.224Z,2.97
2022-09-29T13:36:49.248Z,3.30
2022-09-29T13:39:27.823Z,3.55
2022-09-29T13:41:55.856Z,4.15
2022-09-29T13:44:28.207Z,2.50
2022-09-29T13:46:56.974Z,3.47
2022-09-29T13:49:32.218Z,1.90
2022-09-29T13:52:10.696Z,2.50
2022-09-29T13:54:41.757Z,4.38
2022-09-29T13:57:08.222Z,2.35
2022-09-29T13:59:36.563Z,4.40
2022-09-29T14:02:20.468Z,2.33
2022-09-29T14:04:50.101Z,5.57
2022-09-29T14:07:48.668Z,3.95
2022-09-29T14:10:22.282Z,4.68
2022-09-29T14:12:54.999Z,3.45
2022-09-29T14:15:22.827Z,3.65
2022-09-29T14:17:56.263Z,2.35
2022-09-29T14:20:31.184Z,6.43
2022-09-29T14:23:06.033Z,3.95
2022-09-29T14:25:41.370Z,4.65
2022-09-29T14:28:19.602Z,5.00
2022-09-29T14:30:51.047Z,4.13
2022-09-29T14:33:23.169Z,2.65
2022-09-29T14:35:54.763Z,2.83
2022-09-29T14:38:26.064Z,3.30
2022-09-29T14:40:58.447Z,3.20
2022-09-29T14:43:38.040Z,6.95
2022-09-29T14:46:54.588Z,3.17
2022-09-29T14:49:58.167Z,5.75
2022-09-29T14:52:46.774Z,3.60
2022-09-29T14:55:38.581Z,3.45
2022-09-29T14:58:23.924Z,3.90
2022-09-29T15:01:09.683Z,2.10
2022-09-29T15:03:45.691Z,9.32
2022-09-29T15:06:18.019Z,2.95
2022-09-29T15:09:02.317Z,6.63
2022-09-29T15:11:49.881Z,3.20
2022-09-29T15:14:22.024Z,3.97
2022-09-29T15:17:03.673Z,3.35
2022-09-29T15:19:36.268Z,5.47
2022-09-29T15:22:21.366Z,3.97
2022-09-29T15:24:58.002Z,4.88
2022-09-29T15:27:24.620Z,2.80
2022-09-29T15:29:55.736Z,4.78
2022-09-29T15:32:26.212Z,10.57
2022-09-29T15:34:56.106Z,4.88
2022-09-29T15:37:22.815Z,6.97
2022-09-29T15:39:52.940Z,5.28
2022-09-29T15:42:23.841Z,14.40
2022-09-29T15:45:01.408Z,4.22
2022-09-29T15:47:35.079Z,7.80
2022-09-29T15:50:05.896Z,3.80
2022-09-29T15:52:34.829Z,5.13
2022-09-29T15:55:01.275Z,4.28
2022-09-29T15:58:09.246Z,4.57
2022-09-29T16:00:38.478Z,3.80
2022-09-29T16:03:27.189Z,4.72
2022-09-29T16:06:03.103Z,4.85
2022-09-29T16:08:33.245Z,4.28
2022-09-29T16:11:07.986Z,3.78
2022-09-29T16:13:39.955Z,2.15
2022-09-29T16:16:09.610Z,10.45
2022-09-29T16:18:36.124Z,4.90
2022-09-29T16:21:09.411Z,3.20
2022-09-29T16:23:58.867Z,6.00
2022-09-29T16:26:31.404Z,4.70
2022-09-29T16:29:09.260Z,8.68
2022-09-29T16:31:40.885Z,5.72
2022-09-29T16:37:14.648Z,7.82
2022-09-29T16:39:47.198Z,4.55
2022-09-29T16:42:26.951Z,5.10
2022-09-29T16:44:55.781Z,5.28
2022-09-29T16:47:27.300Z,5.25
2022-09-29T16:49:56.264Z,15.07
2022-09-29T16:52:32.299Z,10.45
2022-09-29T16:55:29.726Z,5.70
2022-09-29T16:57:58.929Z,8.55
2022-09-29T17:00:25.976Z,7.53
2022-09-29T17:02:56.088Z,5.97
2022-09-29T17:05:24.479Z,8.57
2022-09-29T17:08:01.720Z,5.70
2022-09-29T17:10:28.942Z,7.75
2022-09-29T17:12:55.498Z,6.20
2022-09-29T17:15:23.093Z,5.85
2022-09-29T17:17:50.904Z,8.82
2022-09-29T17:20:20.253Z,6.07
2022-09-29T17:22:48.924Z,5.93
2022-09-29T17:25:15.561Z,7.80
2022-09-29T17:28:03.318Z,6.43
2022-09-29T17:30:29.841Z,10.00
2022-09-29T17:32:58.193Z,7.25
2022-09-29T17:35:37.547Z,8.10
2022-09-29T17:38:07.596Z,10.23
2022-09-29T17:40:46.199Z,8.00
2022-09-29T17:43:12.647Z,7.00
2022-09-29T17:45:41.881Z,10.65
2022-09-29T17:48:09.396Z,16.42
2022-09-29T17:50:58.065Z,11.02
2022-09-29T17:53:25.416Z,12.43
2022-09-29T17:55:54.483Z,11.88
2022-09-29T17:58:22.752Z,11.18
2022-09-29T18:00:52.276Z,10.27
2022-09-29T18:03:21.343Z,11.65
2022-09-29T18:05:59.842Z,8.88
2022-09-29T18:08:29.203Z,15.18
2022-09-29T18:11:01.768Z,12.25
2022-09-29T18:13:31.401Z,13.50
2022-09-29T18:16:00.012Z,14.10
2022-09-29T18:18:26.935Z,12.30
2022-09-29T18:20:53.553Z,17.98
2022-09-29T18:23:23.053Z,10.85
2022-09-29T18:25:51.432Z,12.15
2022-09-29T18:28:18.976Z,13.30
2022-09-29T18:30:49.039Z,10.50
2022-09-29T18:33:17.614Z,14.77
2022-09-29T18:35:47.006Z,15.40
2022-09-29T18:38:13.505Z,13.05
2022-09-29T18:40:40.516Z,11.02
2022-09-29T18:43:07.891Z,13.75
2022-09-29T18:45:36.730Z,16.55
2022-09-29T18:48:06.490Z,11.40
2022-09-29T18:50:39.983Z,11.50
2022-09-29T18:53:06.432Z,13.15
2022-09-29T18:55:32.927Z,14.23
2022-09-29T18:58:00.674Z,18.58
2022-09-29T19:00:41.187Z,13.55
2022-09-29T19:03:08.143Z,13.85
2022-09-29T19:05:36.014Z,15.45
2022-09-29T19:08:05.074Z,14.10
2022-09-29T19:10:34.353Z,17.25
2022-09-29T19:13:03.239Z,16.63
2022-09-29T19:15:34.550Z,16.85
2022-09-29T19:18:02.728Z,13.93
2022-09-29T19:20:29.924Z,15.98
2022-09-29T19:23:02.498Z,14.75
2022-09-29T19:25:39.965Z,16.65
2022-09-29T19:28:06.962Z,18.95
2022-09-29T19:30:36.597Z,18.02
2022-09-29T19:33:03.103Z,20.33
2022-09-29T19:35:29.568Z,17.27
2022-09-29T19:37:59.088Z,18.13
2022-09-29T19:40:28.867Z,18.15
2022-09-29T19:42:58.392Z,12.60
2022-09-29T19:45:25.793Z,12.75
2022-09-29T19:47:56.935Z,22.10
2022-09-29T19:50:43.414Z,13.05
2022-09-29T19:58:08.449Z,16.23
2022-09-29T20:00:35.408Z,14.75
